sensor_id;sensor_type;location;lat;lon;timestamp;pressure;altitude;pressure_sealevel;temperature;humidity
20156;BME280;10238;49.556;10.956;2024-01-27T00:02:40;99919.69;;;4.04;100.00
20156;BME280;10238;49.556;10.956;2024-01-27T00:05:29;99932.09;;;4.02;100.00
20156;BME280;10238;49.556;10.956;2024-01-27T00:08:17;99934.00;;;3.98;100.00
20156;BME280;10238;49.556;10.956;2024-01-27T00:11:05;99943.97;;;3.92;100.00
20156;BME280;10238;49.556;10.956;2024-01-27T00:13:52;99933.84;;;3.84;100.00
20156;BME280;10238;49.556;10.956;2024-01-27T00:16:40;99928.81;;;3.80;100.00
20156;BME280;10238;49.556;10.956;2024-01-27T00:19:29;99931.59;;;3.77;100.00
20156;BME280;10238;49.556;10.956;2024-01-27T00:22:17;99930.78;;;3.75;100.00
20156;BME280;10238;49.556;10.956;2024-01-27T00:25:07;99934.44;;;3.72;100.00
20156;BME280;10238;49.556;10.956;2024-01-27T00:27:54;99938.91;;;3.70;100.00
20156;BME280;10238;49.556;10.956;2024-01-27T00:30:42;99940.06;;;3.65;100.00
20156;BME280;10238;49.556;10.956;2024-01-27T00:33:29;99944.75;;;3.58;100.00
20156;BME280;10238;49.556;10.956;2024-01-27T00:36:20;99951.00;;;3.56;100.00
20156;BME280;10238;49.556;10.956;2024-01-27T00:39:08;99949.53;;;3.50;100.00
20156;BME280;10238;49.556;10.956;2024-01-27T00:41:57;99958.56;;;3.45;100.00
20156;BME280;10238;49.556;10.956;2024-01-27T00:44:46;99959.59;;;3.41;100.00
20156;BME280;10238;49.556;10.956;2024-01-27T00:47:33;99957.03;;;3.39;100.00
20156;BME280;10238;49.556;10.956;2024-01-27T00:50:21;99953.72;;;3.36;100.00
20156;BME280;10238;49.556;10.956;2024-01-27T00:53:10;99947.75;;;3.32;100.00
20156;BME280;10238;49.556;10.956;2024-01-27T00:55:58;99956.56;;;3.31;100.00
20156;BME280;10238;49.556;10.956;2024-01-27T00:58:45;99965.44;;;3.29;100.00
20156;BME280;10238;49.556;10.956;2024-01-27T01:01:33;99968.22;;;3.26;100.00
20156;BME280;10238;49.556;10.956;2024-01-27T01:04:21;99964.94;;;3.21;100.00
20156;BME280;10238;49.556;10.956;2024-01-27T01:07:09;99973.88;;;3.17;100.00
20156;BME280;10238;49.556;10.956;2024-01-27T01:09:59;99974.16;;;3.11;100.00
20156;BME280;10238;49.556;10.956;2024-01-27T01:12:46;99989.38;;;3.03;100.00
20156;BME280;10238;49.556;10.956;2024-01-27T01:15:34;99981.81;;;2.97;100.00
20156;BME280;10238;49.556;10.956;2024-01-27T01:18:21;99990.78;;;2.91;100.00
20156;BME280;10238;49.556;10.956;2024-01-27T01:21:09;100005.03;;;2.86;100.00
20156;BME280;10238;49.556;10.956;2024-01-27T01:23:57;100000.06;;;2.80;100.00
20156;BME280;10238;49.556;10.956;2024-01-27T01:26:46;99993.38;;;2.73;100.00
20156;BME280;10238;49.556;10.956;2024-01-27T01:29:34;100003.25;;;2.66;100.00
20156;BME280;10238;49.556;10.956;2024-01-27T01:32:21;100004.38;;;2.61;100.00
20156;BME280;10238;49.556;10.956;2024-01-27T01:35:10;100009.63;;;2.61;100.00
20156;BME280;10238;49.556;10.956;2024-01-27T01:37:58;100008.44;;;2.68;100.00
20156;BME280;10238;49.556;10.956;2024-01-27T01:40:45;100013.91;;;2.63;100.00
20156;BME280;10238;49.556;10.956;2024-01-27T01:43:34;100016.06;;;2.54;100.00
20156;BME280;10238;49.556;10.956;2024-01-27T01:46:22;100027.63;;;2.50;100.00
20156;BME280;10238;49.556;10.956;2024-01-27T01:49:11;100026.06;;;2.46;100.00
20156;BME280;10238;49.556;10.956;2024-01-27T01:51:59;100028.06;;;2.39;100.00
20156;BME280;10238;49.556;10.956;2024-01-27T01:54:48;100027.31;;;2.36;100.00
20156;BME280;10238;49.556;10.956;2024-01-27T01:57:36;100028.50;;;2.28;100.00
20156;BME280;10238;49.556;10.956;2024-01-27T02:00:25;100027.09;;;2.20;100.00
20156;BME280;10238;49.556;10.956;2024-01-27T02:03:13;100031.81;;;2.12;100.00
20156;BME280;10238;49.556;10.956;2024-01-27T02:06:01;100027.66;;;2.06;100.00
20156;BME280;10238;49.556;10.956;2024-01-27T02:08:50;100040.03;;;2.03;100.00
20156;BME280;10238;49.556;10.956;2024-01-27T02:11:41;100034.97;;;1.98;100.00
20156;BME280;10238;49.556;10.956;2024-01-27T02:14:50;100036.91;;;1.93;100.00
20156;BME280;10238;49.556;10.956;2024-01-27T02:17:42;100042.28;;;1.90;100.00
20156;BME280;10238;49.556;10.956;2024-01-27T02:20:31;100043.31;;;1.86;100.00
20156;BME280;10238;49.556;10.956;2024-01-27T02:23:19;100054.84;;;1.82;100.00
20156;BME280;10238;49.556;10.956;2024-01-27T02:26:08;100058.63;;;1.75;100.00
20156;BME280;10238;49.556;10.956;2024-01-27T02:28:56;100069.41;;;1.68;100.00
20156;BME280;10238;49.556;10.956;2024-01-27T02:31:43;100067.88;;;1.61;100.00
20156;BME280;10238;49.556;10.956;2024-01-27T02:34:30;100070.81;;;1.53;100.00
20156;BME280;10238;49.556;10.956;2024-01-27T02:37:19;100071.03;;;1.47;100.00
20156;BME280;10238;49.556;10.956;2024-01-27T02:40:08;100076.41;;;1.44;100.00
20156;BME280;10238;49.556;10.956;2024-01-27T02:42:58;100083.44;;;1.42;100.00
20156;BME280;10238;49.556;10.956;2024-01-27T02:45:45;100086.94;;;1.43;100.00
20156;BME280;10238;49.556;10.956;2024-01-27T02:48:33;100090.22;;;1.48;100.00
20156;BME280;10238;49.556;10.956;2024-01-27T02:51:20;100093.72;;;1.48;100.00
20156;BME280;10238;49.556;10.956;2024-01-27T02:54:08;100098.13;;;1.46;100.00
20156;BME280;10238;49.556;10.956;2024-01-27T02:56:56;100101.63;;;1.47;100.00
20156;BME280;10238;49.556;10.956;2024-01-27T02:59:46;100103.97;;;1.54;100.00
20156;BME280;10238;49.556;10.956;2024-01-27T03:02:34;100101.13;;;1.60;100.00
20156;BME280;10238;49.556;10.956;2024-01-27T03:05:22;100096.56;;;1.65;100.00
20156;BME280;10238;49.556;10.956;2024-01-27T03:08:10;100085.06;;;1.69;100.00
20156;BME280;10238;49.556;10.956;2024-01-27T03:10:57;100089.38;;;1.70;100.00
20156;BME280;10238;49.556;10.956;2024-01-27T03:13:45;100085.84;;;1.71;100.00
20156;BME280;10238;49.556;10.956;2024-01-27T03:16:34;100086.66;;;1.73;100.00
20156;BME280;10238;49.556;10.956;2024-01-27T03:19:21;100086.72;;;1.72;100.00
20156;BME280;10238;49.556;10.956;2024-01-27T03:22:10;100091.88;;;1.73;100.00
20156;BME280;10238;49.556;10.956;2024-01-27T03:24:58;100098.84;;;1.74;100.00
20156;BME280;10238;49.556;10.956;2024-01-27T03:27:45;100102.16;;;1.79;100.00
20156;BME280;10238;49.556;10.956;2024-01-27T03:30:33;100100.31;;;1.81;100.00
20156;BME280;10238;49.556;10.956;2024-01-27T03:33:23;100098.66;;;1.79;100.00
20156;BME280;10238;49.556;10.956;2024-01-27T03:36:11;100105.66;;;1.78;100.00
20156;BME280;10238;49.556;10.956;2024-01-27T03:38:59;100104.81;;;1.78;100.00
20156;BME280;10238;49.556;10.956;2024-01-27T03:41:47;100111.78;;;1.79;100.00
20156;BME280;10238;49.556;10.956;2024-01-27T03:44:34;100117.06;;;1.77;100.00
20156;BME280;10238;49.556;10.956;2024-01-27T03:47:22;100118.00;;;1.76;100.00
20156;BME280;10238;49.556;10.956;2024-01-27T03:50:11;100120.78;;;1.72;100.00
20156;BME280;10238;49.556;10.956;2024-01-27T03:52:59;100116.63;;;1.66;100.00
20156;BME280;10238;49.556;10.956;2024-01-27T03:55:46;100120.25;;;1.62;100.00
20156;BME280;10238;49.556;10.956;2024-01-27T03:58:34;100116.03;;;1.58;100.00
20156;BME280;10238;49.556;10.956;2024-01-27T04:01:21;100133.66;;;1.55;100.00
20156;BME280;10238;49.556;10.956;2024-01-27T04:04:09;100134.59;;;1.52;100.00
20156;BME280;10238;49.556;10.956;2024-01-27T04:06:58;100137.28;;;1.51;100.00
20156;BME280;10238;49.556;10.956;2024-01-27T04:09:48;100139.22;;;1.46;100.00
20156;BME280;10238;49.556;10.956;2024-01-27T04:12:36;100142.94;;;1.40;100.00
20156;BME280;10238;49.556;10.956;2024-01-27T04:15:24;100148.38;;;1.34;100.00
20156;BME280;10238;49.556;10.956;2024-01-27T04:18:12;100152.19;;;1.24;100.00
20156;BME280;10238;49.556;10.956;2024-01-27T04:21:00;100156.97;;;1.13;100.00
20156;BME280;10238;49.556;10.956;2024-01-27T04:23:49;100153.88;;;1.02;100.00
20156;BME280;10238;49.556;10.956;2024-01-27T04:26:36;100146.38;;;0.92;100.00
20156;BME280;10238;49.556;10.956;2024-01-27T04:29:24;100146.63;;;0.84;100.00
20156;BME280;10238;49.556;10.956;2024-01-27T04:32:13;100145.13;;;0.77;100.00
20156;BME280;10238;49.556;10.956;2024-01-27T04:35:00;100142.59;;;0.74;100.00
20156;BME280;10238;49.556;10.956;2024-01-27T04:37:49;100151.56;;;0.67;100.00
20156;BME280;10238;49.556;10.956;2024-01-27T04:40:40;100153.56;;;0.59;100.00
20156;BME280;10238;49.556;10.956;2024-01-27T04:43:28;100157.28;;;0.52;100.00
20156;BME280;10238;49.556;10.956;2024-01-27T04:46:16;100155.78;;;0.45;100.00
20156;BME280;10238;49.556;10.956;2024-01-27T04:49:03;100155.09;;;0.39;100.00
20156;BME280;10238;49.556;10.956;2024-01-27T04:51:51;100163.16;;;0.31;100.00
20156;BME280;10238;49.556;10.956;2024-01-27T04:54:38;100176.44;;;0.25;100.00
20156;BME280;10238;49.556;10.956;2024-01-27T04:57:27;100174.88;;;0.20;100.00
20156;BME280;10238;49.556;10.956;2024-01-27T05:00:15;100173.28;;;0.14;100.00
20156;BME280;10238;49.556;10.956;2024-01-27T05:03:03;100176.09;;;0.08;100.00
20156;BME280;10238;49.556;10.956;2024-01-27T05:05:54;100171.03;;;0.02;100.00
20156;BME280;10238;49.556;10.956;2024-01-27T05:08:41;100168.56;;;-0.03;100.00
20156;BME280;10238;49.556;10.956;2024-01-27T05:11:31;100187.00;;;-0.07;100.00
20156;BME280;10238;49.556;10.956;2024-01-27T05:14:22;100187.16;;;-0.13;100.00
20156;BME280;10238;49.556;10.956;2024-01-27T05:17:09;100196.91;;;-0.18;100.00
20156;BME280;10238;49.556;10.956;2024-01-27T05:19:58;100193.56;;;-0.23;100.00
20156;BME280;10238;49.556;10.956;2024-01-27T05:22:46;100204.09;;;-0.26;100.00
20156;BME280;10238;49.556;10.956;2024-01-27T05:25:33;100196.25;;;-0.26;100.00
20156;BME280;10238;49.556;10.956;2024-01-27T05:28:21;100195.50;;;-0.30;100.00
20156;BME280;10238;49.556;10.956;2024-01-27T05:31:10;100197.25;;;-0.30;100.00
20156;BME280;10238;49.556;10.956;2024-01-27T05:33:57;100199.84;;;-0.30;100.00
20156;BME280;10238;49.556;10.956;2024-01-27T05:36:46;100212.00;;;-0.29;100.00
20156;BME280;10238;49.556;10.956;2024-01-27T05:39:34;100211.13;;;-0.28;100.00
20156;BME280;10238;49.556;10.956;2024-01-27T05:42:21;100214.50;;;-0.25;100.00
20156;BME280;10238;49.556;10.956;2024-01-27T05:45:09;100208.34;;;-0.22;100.00
20156;BME280;10238;49.556;10.956;2024-01-27T05:47:58;100204.84;;;-0.21;100.00
20156;BME280;10238;49.556;10.956;2024-01-27T05:50:55;100209.09;;;-0.19;100.00
20156;BME280;10238;49.556;10.956;2024-01-27T05:53:43;100212.63;;;-0.20;100.00
20156;BME280;10238;49.556;10.956;2024-01-27T05:56:30;100223.00;;;-0.17;100.00
20156;BME280;10238;49.556;10.956;2024-01-27T05:59:18;100223.06;;;-0.20;100.00
20156;BME280;10238;49.556;10.956;2024-01-27T06:02:05;100228.44;;;-0.24;100.00
20156;BME280;10238;49.556;10.956;2024-01-27T06:04:54;100230.28;;;-0.29;100.00
20156;BME280;10238;49.556;10.956;2024-01-27T06:07:42;100221.81;;;-0.37;100.00
20156;BME280;10238;49.556;10.956;2024-01-27T06:10:32;100227.19;;;-0.42;100.00
20156;BME280;10238;49.556;10.956;2024-01-27T06:13:19;100237.69;;;-0.45;100.00
20156;BME280;10238;49.556;10.956;2024-01-27T06:16:07;100236.03;;;-0.47;100.00
20156;BME280;10238;49.556;10.956;2024-01-27T06:18:56;100226.34;;;-0.44;100.00
20156;BME280;10238;49.556;10.956;2024-01-27T06:21:45;100225.50;;;-0.44;100.00
20156;BME280;10238;49.556;10.956;2024-01-27T06:24:33;100229.00;;;-0.45;100.00
20156;BME280;10238;49.556;10.956;2024-01-27T06:27:21;100231.66;;;-0.47;100.00
20156;BME280;10238;49.556;10.956;2024-01-27T06:30:10;100237.78;;;-0.48;100.00
20156;BME280;10238;49.556;10.956;2024-01-27T06:32:58;100237.81;;;-0.49;100.00
20156;BME280;10238;49.556;10.956;2024-01-27T06:35:46;100245.81;;;-0.55;100.00
20156;BME280;10238;49.556;10.956;2024-01-27T06:38:37;100249.50;;;-0.62;100.00
20156;BME280;10238;49.556;10.956;2024-01-27T06:41:25;100240.09;;;-0.69;100.00
20156;BME280;10238;49.556;10.956;2024-01-27T06:44:12;100246.38;;;-0.76;100.00
20156;BME280;10238;49.556;10.956;2024-01-27T06:47:00;100241.31;;;-0.82;100.00
20156;BME280;10238;49.556;10.956;2024-01-27T06:49:48;100247.47;;;-0.86;100.00
20156;BME280;10238;49.556;10.956;2024-01-27T06:52:35;100253.69;;;-0.90;100.00
20156;BME280;10238;49.556;10.956;2024-01-27T06:55:24;100257.28;;;-0.94;100.00
20156;BME280;10238;49.556;10.956;2024-01-27T06:58:12;100264.34;;;-0.99;100.00
20156;BME280;10238;49.556;10.956;2024-01-27T07:01:00;100262.72;;;-1.03;100.00
20156;BME280;10238;49.556;10.956;2024-01-27T07:03:47;100257.56;;;-1.06;100.00
20156;BME280;10238;49.556;10.956;2024-01-27T07:06:35;100265.47;;;-1.09;100.00
20156;BME280;10238;49.556;10.956;2024-01-27T07:09:23;100261.22;;;-1.13;100.00
20156;BME280;10238;49.556;10.956;2024-01-27T07:12:12;100266.50;;;-1.16;100.00
20156;BME280;10238;49.556;10.956;2024-01-27T07:15:00;100270.09;;;-1.20;100.00
20156;BME280;10238;49.556;10.956;2024-01-27T07:17:48;100277.94;;;-1.22;100.00
20156;BME280;10238;49.556;10.956;2024-01-27T07:20:36;100280.59;;;-1.23;100.00
20156;BME280;10238;49.556;10.956;2024-01-27T07:23:24;100268.44;;;-1.24;100.00
20156;BME280;10238;49.556;10.956;2024-01-27T07:26:13;100280.59;;;-1.23;100.00
20156;BME280;10238;49.556;10.956;2024-01-27T07:29:02;100284.09;;;-1.24;100.00
20156;BME280;10238;49.556;10.956;2024-01-27T07:31:50;100291.09;;;-1.26;100.00
20156;BME280;10238;49.556;10.956;2024-01-27T07:34:39;100300.66;;;-1.27;100.00
20156;BME280;10238;49.556;10.956;2024-01-27T07:37:27;100298.94;;;-1.28;100.00
20156;BME280;10238;49.556;10.956;2024-01-27T07:40:15;100302.47;;;-1.29;100.00
20156;BME280;10238;49.556;10.956;2024-01-27T07:43:02;100305.06;;;-1.29;100.00
20156;BME280;10238;49.556;10.956;2024-01-27T07:45:52;100307.69;;;-1.29;100.00
20156;BME280;10238;49.556;10.956;2024-01-27T07:48:40;100302.47;;;-1.29;100.00
20156;BME280;10238;49.556;10.956;2024-01-27T07:51:28;100313.69;;;-1.27;100.00
20156;BME280;10238;49.556;10.956;2024-01-27T07:54:16;100317.19;;;-1.26;100.00
20156;BME280;10238;49.556;10.956;2024-01-27T07:57:04;100316.28;;;-1.25;100.00
20156;BME280;10238;49.556;10.956;2024-01-27T07:59:51;100318.84;;;-1.24;100.00
20156;BME280;10238;49.556;10.956;2024-01-27T08:02:40;100314.50;;;-1.23;100.00
20156;BME280;10238;49.556;10.956;2024-01-27T08:05:28;100317.91;;;-1.21;100.00
20156;BME280;10238;49.556;10.956;2024-01-27T08:08:16;100317.03;;;-1.20;100.00
20156;BME280;10238;49.556;10.956;2024-01-27T08:11:04;100320.44;;;-1.18;100.00
20156;BME280;10238;49.556;10.956;2024-01-27T08:13:51;100314.38;;;-1.17;100.00
20156;BME280;10238;49.556;10.956;2024-01-27T08:16:40;100319.44;;;-1.11;100.00
20156;BME280;10238;49.556;10.956;2024-01-27T08:19:29;100319.22;;;-1.02;100.00
20156;BME280;10238;49.556;10.956;2024-01-27T08:22:17;100320.69;;;-0.89;100.00
20156;BME280;10238;49.556;10.956;2024-01-27T08:25:06;100322.81;;;-0.71;100.00
20156;BME280;10238;49.556;10.956;2024-01-27T08:27:54;100316.59;;;-0.66;100.00
20156;BME280;10238;49.556;10.956;2024-01-27T08:30:42;100318.94;;;-0.55;100.00
20156;BME280;10238;49.556;10.956;2024-01-27T08:33:29;100325.72;;;-0.48;100.00
20156;BME280;10238;49.556;10.956;2024-01-27T08:36:19;100334.31;;;-0.43;100.00
20156;BME280;10238;49.556;10.956;2024-01-27T08:39:07;100330.34;;;-0.24;100.00
20156;BME280;10238;49.556;10.956;2024-01-27T08:41:55;100339.50;;;-0.08;100.00
20156;BME280;10238;49.556;10.956;2024-01-27T08:44:43;100339.72;;;0.15;100.00
20156;BME280;10238;49.556;10.956;2024-01-27T08:47:30;100337.44;;;0.35;100.00
20156;BME280;10238;49.556;10.956;2024-01-27T08:50:19;100347.66;;;0.43;100.00
20156;BME280;10238;49.556;10.956;2024-01-27T08:53:08;100342.94;;;0.55;100.00
20156;BME280;10238;49.556;10.956;2024-01-27T08:55:56;100344.38;;;0.65;100.00
20156;BME280;10238;49.556;10.956;2024-01-27T08:58:44;100350.53;;;0.64;100.00
20156;BME280;10238;49.556;10.956;2024-01-27T09:01:34;100346.91;;;0.68;100.00
20156;BME280;10238;49.556;10.956;2024-01-27T09:04:25;100358.00;;;0.76;100.00
20156;BME280;10238;49.556;10.956;2024-01-27T09:07:12;100359.31;;;0.91;100.00
20156;BME280;10238;49.556;10.956;2024-01-27T09:10:02;100359.91;;;1.00;100.00
20156;BME280;10238;49.556;10.956;2024-01-27T09:12:50;100357.88;;;1.08;100.00
20156;BME280;10238;49.556;10.956;2024-01-27T09:15:38;100361.88;;;1.21;100.00
20156;BME280;10238;49.556;10.956;2024-01-27T09:18:26;100363.09;;;1.37;100.00
20156;BME280;10238;49.556;10.956;2024-01-27T09:21:14;100365.22;;;1.52;100.00
20156;BME280;10238;49.556;10.956;2024-01-27T09:24:07;100367.72;;;1.55;100.00
20156;BME280;10238;49.556;10.956;2024-01-27T09:26:58;100359.66;;;1.61;100.00
20156;BME280;10238;49.556;10.956;2024-01-27T09:29:45;100358.50;;;1.70;100.00
20156;BME280;10238;49.556;10.956;2024-01-27T09:32:33;100356.28;;;1.84;100.00
20156;BME280;10238;49.556;10.956;2024-01-27T09:35:23;100362.84;;;1.97;100.00
20156;BME280;10238;49.556;10.956;2024-01-27T09:38:10;100361.88;;;1.99;100.00
20156;BME280;10238;49.556;10.956;2024-01-27T09:41:00;100360.53;;;2.12;100.00
20156;BME280;10238;49.556;10.956;2024-01-27T09:43:50;100367.00;;;2.27;100.00
20156;BME280;10238;49.556;10.956;2024-01-27T09:46:40;100363.50;;;2.28;100.00
20156;BME280;10238;49.556;10.956;2024-01-27T09:49:29;100355.31;;;2.36;100.00
20156;BME280;10238;49.556;10.956;2024-01-27T09:52:18;100362.69;;;2.49;100.00
20156;BME280;10238;49.556;10.956;2024-01-27T09:55:07;100367.09;;;2.49;100.00
20156;BME280;10238;49.556;10.956;2024-01-27T09:57:57;100367.56;;;2.60;100.00
20156;BME280;10238;49.556;10.956;2024-01-27T10:00:49;100365.38;;;2.71;100.00
20156;BME280;10238;49.556;10.956;2024-01-27T10:03:40;100367.00;;;2.75;100.00
20156;BME280;10238;49.556;10.956;2024-01-27T10:06:29;100365.88;;;2.82;100.00
20156;BME280;10238;49.556;10.956;2024-01-27T10:09:18;100365.53;;;2.91;100.00
20156;BME280;10238;49.556;10.956;2024-01-27T10:12:06;100354.53;;;3.03;100.00
20156;BME280;10238;49.556;10.956;2024-01-27T10:14:55;100360.34;;;3.11;100.00
20156;BME280;10238;49.556;10.956;2024-01-27T10:17:44;100348.56;;;3.21;100.00
20156;BME280;10238;49.556;10.956;2024-01-27T10:20:32;100344.41;;;3.37;100.00
20156;BME280;10238;49.556;10.956;2024-01-27T10:23:21;100338.78;;;3.46;100.00
20156;BME280;10238;49.556;10.956;2024-01-27T10:26:09;100334.78;;;3.57;100.00
20156;BME280;10238;49.556;10.956;2024-01-27T10:28:57;100342.91;;;3.73;100.00
20156;BME280;10238;49.556;10.956;2024-01-27T10:31:45;100332.53;;;3.90;100.00
20156;BME280;10238;49.556;10.956;2024-01-27T10:34:34;100331.22;;;4.00;100.00
20156;BME280;10238;49.556;10.956;2024-01-27T10:37:24;100326.28;;;4.12;100.00
20156;BME280;10238;49.556;10.956;2024-01-27T10:40:13;100325.06;;;4.21;100.00
20156;BME280;10238;49.556;10.956;2024-01-27T10:43:04;100320.03;;;4.35;100.00
20156;BME280;10238;49.556;10.956;2024-01-27T10:45:53;100317.69;;;4.47;100.00
20156;BME280;10238;49.556;10.956;2024-01-27T10:48:44;100321.56;;;4.59;100.00
20156;BME280;10238;49.556;10.956;2024-01-27T10:51:36;100310.44;;;4.71;100.00
20156;BME280;10238;49.556;10.956;2024-01-27T10:54:27;100316.03;;;4.84;100.00
20156;BME280;10238;49.556;10.956;2024-01-27T10:57:18;100312.72;;;4.97;100.00
20156;BME280;10238;49.556;10.956;2024-01-27T11:00:07;100316.66;;;5.07;100.00
20156;BME280;10238;49.556;10.956;2024-01-27T11:02:59;100317.78;;;5.20;100.00
20156;BME280;10238;49.556;10.956;2024-01-27T11:05:49;100314.53;;;5.32;100.00
20156;BME280;10238;49.556;10.956;2024-01-27T11:08:40;100321.69;;;5.47;100.00
20156;BME280;10238;49.556;10.956;2024-01-27T11:11:30;100317.59;;;5.59;100.00
20156;BME280;10238;49.556;10.956;2024-01-27T11:14:18;100308.16;;;5.72;100.00
20156;BME280;10238;49.556;10.956;2024-01-27T11:17:05;100309.19;;;5.86;100.00
20156;BME280;10238;49.556;10.956;2024-01-27T11:19:56;100315.50;;;6.01;100.00
20156;BME280;10238;49.556;10.956;2024-01-27T11:22:46;100309.41;;;6.16;100.00
20156;BME280;10238;49.556;10.956;2024-01-27T11:25:34;100307.25;;;6.24;100.00
20156;BME280;10238;49.556;10.956;2024-01-27T11:28:26;100310.41;;;6.30;100.00
20156;BME280;10238;49.556;10.956;2024-01-27T11:31:18;100303.84;;;6.37;100.00
20156;BME280;10238;49.556;10.956;2024-01-27T11:34:10;100306.47;;;6.54;100.00
20156;BME280;10238;49.556;10.956;2024-01-27T11:37:11;100306.16;;;6.76;100.00
20156;BME280;10238;49.556;10.956;2024-01-27T11:40:04;100309.75;;;6.91;100.00
20156;BME280;10238;49.556;10.956;2024-01-27T11:42:56;100315.00;;;7.08;100.00
20156;BME280;10238;49.556;10.956;2024-01-27T11:45:55;100311.81;;;7.17;100.00
20156;BME280;10238;49.556;10.956;2024-01-27T11:48:43;100297.13;;;7.27;100.00
20156;BME280;10238;49.556;10.956;2024-01-27T11:51:30;100290.13;;;7.41;100.00
20156;BME280;10238;49.556;10.956;2024-01-27T11:54:19;100288.00;;;7.62;100.00
20156;BME280;10238;49.556;10.956;2024-01-27T11:57:06;100284.66;;;7.74;100.00
20156;BME280;10238;49.556;10.956;2024-01-27T11:59:56;100287.81;;;7.80;100.00
20156;BME280;10238;49.556;10.956;2024-01-27T12:02:44;100278.56;;;7.87;100.00
20156;BME280;10238;49.556;10.956;2024-01-27T12:05:34;100274.69;;;7.93;100.00
20156;BME280;10238;49.556;10.956;2024-01-27T12:08:22;100277.94;;;7.98;100.00
20156;BME280;10238;49.556;10.956;2024-01-27T12:11:10;100275.94;;;8.01;100.00
20156;BME280;10238;49.556;10.956;2024-01-27T12:13:57;100269.34;;;8.08;100.00
20156;BME280;10238;49.556;10.956;2024-01-27T12:16:46;100277.75;;;8.15;100.00
20156;BME280;10238;49.556;10.956;2024-01-27T12:19:35;100278.19;;;8.23;100.00
20156;BME280;10238;49.556;10.956;2024-01-27T12:22:25;100285.38;;;8.35;100.00
20156;BME280;10238;49.556;10.956;2024-01-27T12:25:14;100283.50;;;8.37;100.00
20156;BME280;10238;49.556;10.956;2024-01-27T12:28:02;100275.25;;;8.41;100.00
20156;BME280;10238;49.556;10.956;2024-01-27T12:30:53;100281.25;;;8.45;100.00
20156;BME280;10238;49.556;10.956;2024-01-27T12:33:49;100272.97;;;8.49;100.00
20156;BME280;10238;49.556;10.956;2024-01-27T12:36:41;100280.66;;;8.54;100.00
20156;BME280;10238;49.556;10.956;2024-01-27T12:39:31;100271.19;;;8.64;100.00
20156;BME280;10238;49.556;10.956;2024-01-27T12:42:18;100276.94;;;8.70;100.00
20156;BME280;10238;49.556;10.956;2024-01-27T12:45:08;100274.00;;;8.75;100.00
20156;BME280;10238;49.556;10.956;2024-01-27T12:47:56;100269.47;;;8.77;100.00
20156;BME280;10238;49.556;10.956;2024-01-27T12:50:45;100267.75;;;8.90;100.00
20156;BME280;10238;49.556;10.956;2024-01-27T12:53:32;100265.84;;;8.92;100.00
20156;BME280;10238;49.556;10.956;2024-01-27T12:56:23;100266.22;;;9.00;100.00
20156;BME280;10238;49.556;10.956;2024-01-27T12:59:11;100274.13;;;9.14;100.00
20156;BME280;10238;49.556;10.956;2024-01-27T13:02:00;100271.28;;;9.17;100.00
20156;BME280;10238;49.556;10.956;2024-01-27T13:04:51;100267.03;;;9.15;100.00
20156;BME280;10238;49.556;10.956;2024-01-27T13:07:40;100273.72;;;9.20;100.00
20156;BME280;10238;49.556;10.956;2024-01-27T13:10:28;100271.63;;;9.25;100.00
20156;BME280;10238;49.556;10.956;2024-01-27T13:13:16;100277.44;;;9.18;100.00
20156;BME280;10238;49.556;10.956;2024-01-27T13:16:05;100279.41;;;9.28;100.00
20156;BME280;10238;49.556;10.956;2024-01-27T13:18:52;100275.41;;;9.35;100.00
20156;BME280;10238;49.556;10.956;2024-01-27T13:21:40;100278.19;;;9.46;100.00
20156;BME280;10238;49.556;10.956;2024-01-27T13:24:29;100270.72;;;9.39;100.00
20156;BME280;10238;49.556;10.956;2024-01-27T13:27:17;100258.41;;;9.38;100.00
20156;BME280;10238;49.556;10.956;2024-01-27T13:30:08;100262.66;;;9.40;100.00
20156;BME280;10238;49.556;10.956;2024-01-27T13:32:55;100254.91;;;9.37;100.00
20156;BME280;10238;49.556;10.956;2024-01-27T13:35:44;100251.41;;;9.37;100.00
20156;BME280;10238;49.556;10.956;2024-01-27T13:38:33;100247.16;;;9.34;100.00
20156;BME280;10238;49.556;10.956;2024-01-27T13:41:23;100242.25;;;9.28;100.00
20156;BME280;10238;49.556;10.956;2024-01-27T13:44:11;100238.63;;;9.29;100.00
20156;BME280;10238;49.556;10.956;2024-01-27T13:46:58;100223.00;;;9.25;100.00
20156;BME280;10238;49.556;10.956;2024-01-27T13:49:47;100219.09;;;9.30;100.00
20156;BME280;10238;49.556;10.956;2024-01-27T13:52:36;100216.53;;;9.29;100.00
20156;BME280;10238;49.556;10.956;2024-01-27T13:55:23;100210.50;;;9.27;100.00
20156;BME280;10238;49.556;10.956;2024-01-27T13:58:12;100207.84;;;9.27;100.00
20156;BME280;10238;49.556;10.956;2024-01-27T14:01:00;100207.19;;;9.23;100.00
20156;BME280;10238;49.556;10.956;2024-01-27T14:03:47;100211.63;;;9.23;100.00
20156;BME280;10238;49.556;10.956;2024-01-27T14:06:35;100207.19;;;9.23;100.00
20156;BME280;10238;49.556;10.956;2024-01-27T14:09:23;100203.78;;;9.21;100.00
20156;BME280;10238;49.556;10.956;2024-01-27T14:12:12;100202.09;;;9.20;100.00
20156;BME280;10238;49.556;10.956;2024-01-27T14:15:05;100203.25;;;9.16;100.00
20156;BME280;10238;49.556;10.956;2024-01-27T14:17:54;100193.44;;;9.04;100.00
20156;BME280;10238;49.556;10.956;2024-01-27T14:20:42;100192.91;;;8.99;100.00
20156;BME280;10238;49.556;10.956;2024-01-27T14:23:29;100196.69;;;8.95;100.00
20156;BME280;10238;49.556;10.956;2024-01-27T14:26:17;100193.50;;;8.90;100.00
20156;BME280;10238;49.556;10.956;2024-01-27T14:29:06;100196.72;;;8.81;100.00